sensor_id;sensor_type;location;lat;lon;timestamp;P1;durP1;ratioP1;P2;durP2;ratioP2
35150;SDS011;55720;51.972;4.624;2023-07-13T00:01:04;13.73;;;3.25;;
35150;SDS011;55720;51.972;4.624;2023-07-13T00:03:31;14.52;;;2.22;;
35150;SDS011;55720;51.972;4.624;2023-07-13T00:06:00;15.27;;;2.45;;
35150;SDS011;55720;51.972;4.624;2023-07-13T00:08:25;17.05;;;3.13;;
35150;SDS011;55720;51.972;4.624;2023-07-13T00:10:52;17.80;;;2.93;;
35150;SDS011;55720;51.972;4.624;2023-07-13T00:13:19;15.82;;;2.72;;
35150;SDS011;55720;51.972;4.624;2023-07-13T00:15:44;15.18;;;2.38;;
35150;SDS011;55720;51.972;4.624;2023-07-13T00:18:09;14.27;;;2.70;;
35150;SDS011;55720;51.972;4.624;2023-07-13T00:20:35;12.87;;;3.03;;
35150;SDS011;55720;51.972;4.624;2023-07-13T00:23:00;18.25;;;3.55;;
35150;SDS011;55720;51.972;4.624;2023-07-13T00:25:25;12.90;;;2.57;;
35150;SDS011;55720;51.972;4.624;2023-07-13T00:27:53;14.77;;;2.55;;
35150;SDS011;55720;51.972;4.624;2023-07-13T00:30:18;12.35;;;2.88;;
35150;SDS011;55720;51.972;4.624;2023-07-13T00:32:44;7.32;;;2.22;;
35150;SDS011;55720;51.972;4.624;2023-07-13T00:35:09;12.25;;;2.72;;
35150;SDS011;55720;51.972;4.624;2023-07-13T00:37:34;10.27;;;2.50;;
35150;SDS011;55720;51.972;4.624;2023-07-13T00:40:01;12.85;;;2.40;;
35150;SDS011;55720;51.972;4.624;2023-07-13T00:42:26;17.52;;;2.40;;
35150;SDS011;55720;51.972;4.624;2023-07-13T00:47:49;6.78;;;1.70;;
35150;SDS011;55720;51.972;4.624;2023-07-13T00:50:15;11.00;;;2.00;;
35150;SDS011;55720;51.972;4.624;2023-07-13T00:52:43;10.35;;;2.30;;
35150;SDS011;55720;51.972;4.624;2023-07-13T00:55:09;13.82;;;2.00;;
35150;SDS011;55720;51.972;4.624;2023-07-13T00:57:36;16.77;;;2.47;;
35150;SDS011;55720;51.972;4.624;2023-07-13T01:00:03;14.52;;;1.77;;
35150;SDS011;55720;51.972;4.624;2023-07-13T01:02:30;13.75;;;2.70;;
35150;SDS011;55720;51.972;4.624;2023-07-13T01:04:56;15.35;;;2.30;;
35150;SDS011;55720;51.972;4.624;2023-07-13T01:07:21;14.10;;;2.45;;
35150;SDS011;55720;51.972;4.624;2023-07-13T01:09:46;11.55;;;2.05;;
35150;SDS011;55720;51.972;4.624;2023-07-13T01:12:11;16.50;;;2.20;;
35150;SDS011;55720;51.972;4.624;2023-07-13T01:14:38;13.30;;;2.28;;
35150;SDS011;55720;51.972;4.624;2023-07-13T01:17:04;15.57;;;2.63;;
35150;SDS011;55720;51.972;4.624;2023-07-13T01:22:00;14.57;;;2.53;;
35150;SDS011;55720;51.972;4.624;2023-07-13T01:24:26;12.38;;;2.40;;
35150;SDS011;55720;51.972;4.624;2023-07-13T01:26:51;19.23;;;2.90;;
35150;SDS011;55720;51.972;4.624;2023-07-13T01:29:16;14.20;;;2.43;;
35150;SDS011;55720;51.972;4.624;2023-07-13T01:31:41;15.17;;;2.40;;
35150;SDS011;55720;51.972;4.624;2023-07-13T01:34:09;15.85;;;3.67;;
35150;SDS011;55720;51.972;4.624;2023-07-13T01:36:34;23.73;;;2.73;;
35150;SDS011;55720;51.972;4.624;2023-07-13T01:38:59;12.97;;;2.27;;
35150;SDS011;55720;51.972;4.624;2023-07-13T01:41:24;12.70;;;2.17;;
35150;SDS011;55720;51.972;4.624;2023-07-13T01:43:49;12.97;;;2.10;;
35150;SDS011;55720;51.972;4.624;2023-07-13T01:46:15;13.63;;;2.37;;
35150;SDS011;55720;51.972;4.624;2023-07-13T01:48:40;17.48;;;2.60;;
35150;SDS011;55720;51.972;4.624;2023-07-13T01:51:05;13.00;;;2.63;;
35150;SDS011;55720;51.972;4.624;2023-07-13T01:53:30;12.87;;;2.63;;
35150;SDS011;55720;51.972;4.624;2023-07-13T01:55:56;16.75;;;2.63;;
35150;SDS011;55720;51.972;4.624;2023-07-13T01:58:21;10.90;;;1.97;;
35150;SDS011;55720;51.972;4.624;2023-07-13T02:00:48;15.30;;;2.20;;
35150;SDS011;55720;51.972;4.624;2023-07-13T02:03:14;14.15;;;2.35;;
35150;SDS011;55720;51.972;4.624;2023-07-13T02:05:42;12.27;;;2.13;;
35150;SDS011;55720;51.972;4.624;2023-07-13T02:08:08;13.33;;;2.17;;
35150;SDS011;55720;51.972;4.624;2023-07-13T02:10:33;8.93;;;1.80;;
35150;SDS011;55720;51.972;4.624;2023-07-13T02:12:58;6.70;;;1.60;;
35150;SDS011;55720;51.972;4.624;2023-07-13T02:15:24;12.93;;;2.75;;
35150;SDS011;55720;51.972;4.624;2023-07-13T02:17:49;5.65;;;1.27;;
35150;SDS011;55720;51.972;4.624;2023-07-13T02:20:14;8.57;;;1.90;;
35150;SDS011;55720;51.972;4.624;2023-07-13T02:22:40;7.93;;;1.27;;
35150;SDS011;55720;51.972;4.624;2023-07-13T02:25:05;8.97;;;1.13;;
35150;SDS011;55720;51.972;4.624;2023-07-13T02:27:31;6.40;;;1.52;;
35150;SDS011;55720;51.972;4.624;2023-07-13T02:29:56;8.60;;;1.40;;
35150;SDS011;55720;51.972;4.624;2023-07-13T02:32:21;7.03;;;1.30;;
35150;SDS011;55720;51.972;4.624;2023-07-13T02:34:47;4.72;;;1.80;;
35150;SDS011;55720;51.972;4.624;2023-07-13T02:37:12;6.90;;;1.70;;
35150;SDS011;55720;51.972;4.624;2023-07-13T02:39:37;5.75;;;1.60;;
35150;SDS011;55720;51.972;4.624;2023-07-13T02:42:02;8.00;;;1.90;;
35150;SDS011;55720;51.972;4.624;2023-07-13T02:44:28;8.43;;;1.70;;
35150;SDS011;55720;51.972;4.624;2023-07-13T02:46:53;7.07;;;1.65;;
35150;SDS011;55720;51.972;4.624;2023-07-13T02:49:19;7.87;;;1.90;;
35150;SDS011;55720;51.972;4.624;2023-07-13T02:51:44;15.13;;;2.20;;
35150;SDS011;55720;51.972;4.624;2023-07-13T02:54:09;9.03;;;1.90;;
35150;SDS011;55720;51.972;4.624;2023-07-13T02:56:35;13.40;;;2.13;;
35150;SDS011;55720;51.972;4.624;2023-07-13T02:59:00;12.60;;;2.33;;
35150;SDS011;55720;51.972;4.624;2023-07-13T03:01:26;8.65;;;1.95;;
35150;SDS011;55720;51.972;4.624;2023-07-13T03:03:51;8.83;;;2.17;;
35150;SDS011;55720;51.972;4.624;2023-07-13T03:06:17;13.02;;;2.13;;
35150;SDS011;55720;51.972;4.624;2023-07-13T03:08:43;11.73;;;2.28;;
35150;SDS011;55720;51.972;4.624;2023-07-13T03:11:10;10.30;;;2.08;;
35150;SDS011;55720;51.972;4.624;2023-07-13T03:13:36;13.23;;;2.15;;
35150;SDS011;55720;51.972;4.624;2023-07-13T03:16:01;17.23;;;2.40;;
35150;SDS011;55720;51.972;4.624;2023-07-13T03:18:27;14.43;;;2.53;;
35150;SDS011;55720;51.972;4.624;2023-07-13T03:20:52;18.58;;;2.90;;
35150;SDS011;55720;51.972;4.624;2023-07-13T03:23:18;16.63;;;2.85;;
35150;SDS011;55720;51.972;4.624;2023-07-13T03:25:44;22.95;;;3.65;;
35150;SDS011;55720;51.972;4.624;2023-07-13T03:28:10;9.48;;;2.58;;
35150;SDS011;55720;51.972;4.624;2023-07-13T03:30:35;11.27;;;2.53;;
35150;SDS011;55720;51.972;4.624;2023-07-13T03:33:00;26.47;;;2.67;;
35150;SDS011;55720;51.972;4.624;2023-07-13T03:35:25;14.93;;;2.90;;
35150;SDS011;55720;51.972;4.624;2023-07-13T03:37:51;23.97;;;2.83;;
35150;SDS011;55720;51.972;4.624;2023-07-13T03:40:16;20.13;;;2.97;;
35150;SDS011;55720;51.972;4.624;2023-07-13T03:42:41;17.05;;;3.00;;
35150;SDS011;55720;51.972;4.624;2023-07-13T03:45:07;18.73;;;3.20;;
35150;SDS011;55720;51.972;4.624;2023-07-13T03:47:32;23.30;;;3.70;;
35150;SDS011;55720;51.972;4.624;2023-07-13T03:49:57;20.87;;;3.27;;
35150;SDS011;55720;51.972;4.624;2023-07-13T03:52:22;15.13;;;3.03;;
35150;SDS011;55720;51.972;4.624;2023-07-13T03:54:48;15.85;;;3.10;;
35150;SDS011;55720;51.972;4.624;2023-07-13T03:57:13;18.40;;;3.63;;
35150;SDS011;55720;51.972;4.624;2023-07-13T03:59:38;17.07;;;3.10;;
35150;SDS011;55720;51.972;4.624;2023-07-13T04:02:04;19.60;;;3.50;;
35150;SDS011;55720;51.972;4.624;2023-07-13T04:04:30;21.98;;;3.42;;
35150;SDS011;55720;51.972;4.624;2023-07-13T04:06:55;19.23;;;3.03;;
35150;SDS011;55720;51.972;4.624;2023-07-13T04:09:21;18.10;;;3.20;;
35150;SDS011;55720;51.972;4.624;2023-07-13T04:11:46;16.77;;;3.73;;
35150;SDS011;55720;51.972;4.624;2023-07-13T04:14:11;12.33;;;3.10;;
35150;SDS011;55720;51.972;4.624;2023-07-13T04:16:37;12.57;;;2.87;;
35150;SDS011;55720;51.972;4.624;2023-07-13T04:19:02;18.52;;;3.33;;
35150;SDS011;55720;51.972;4.624;2023-07-13T04:21:28;20.07;;;3.20;;
35150;SDS011;55720;51.972;4.624;2023-07-13T04:23:54;20.08;;;3.38;;
35150;SDS011;55720;51.972;4.624;2023-07-13T04:26:19;15.10;;;3.33;;
35150;SDS011;55720;51.972;4.624;2023-07-13T04:28:46;12.88;;;2.85;;
35150;SDS011;55720;51.972;4.624;2023-07-13T04:31:11;15.63;;;3.35;;
35150;SDS011;55720;51.972;4.624;2023-07-13T04:33:36;21.23;;;2.92;;
35150;SDS011;55720;51.972;4.624;2023-07-13T04:36:01;18.85;;;4.00;;
35150;SDS011;55720;51.972;4.624;2023-07-13T04:38:28;19.45;;;3.13;;
35150;SDS011;55720;51.972;4.624;2023-07-13T04:40:57;16.02;;;3.55;;
35150;SDS011;55720;51.972;4.624;2023-07-13T04:43:23;14.07;;;2.72;;
35150;SDS011;55720;51.972;4.624;2023-07-13T04:45:50;14.23;;;3.10;;
35150;SDS011;55720;51.972;4.624;2023-07-13T04:48:15;10.75;;;2.55;;
35150;SDS011;55720;51.972;4.624;2023-07-13T04:50:41;11.88;;;3.15;;
35150;SDS011;55720;51.972;4.624;2023-07-13T04:53:06;12.32;;;2.60;;
35150;SDS011;55720;51.972;4.624;2023-07-13T04:55:31;8.17;;;2.33;;
35150;SDS011;55720;51.972;4.624;2023-07-13T04:57:57;21.47;;;2.40;;
35150;SDS011;55720;51.972;4.624;2023-07-13T05:00:23;16.08;;;2.90;;
35150;SDS011;55720;51.972;4.624;2023-07-13T05:02:48;15.00;;;3.83;;
35150;SDS011;55720;51.972;4.624;2023-07-13T05:05:14;6.17;;;2.03;;
35150;SDS011;55720;51.972;4.624;2023-07-13T05:07:39;13.32;;;2.22;;
35150;SDS011;55720;51.972;4.624;2023-07-13T05:10:04;10.43;;;2.13;;
35150;SDS011;55720;51.972;4.624;2023-07-13T05:12:30;14.52;;;3.00;;
35150;SDS011;55720;51.972;4.624;2023-07-13T05:14:55;11.98;;;2.40;;
35150;SDS011;55720;51.972;4.624;2023-07-13T05:17:20;10.33;;;2.10;;
35150;SDS011;55720;51.972;4.624;2023-07-13T05:19:45;14.23;;;2.03;;
35150;SDS011;55720;51.972;4.624;2023-07-13T05:22:11;8.67;;;2.30;;
35150;SDS011;55720;51.972;4.624;2023-07-13T05:24:36;9.30;;;2.67;;
35150;SDS011;55720;51.972;4.624;2023-07-13T05:27:01;9.53;;;2.60;;
35150;SDS011;55720;51.972;4.624;2023-07-13T05:29:26;13.32;;;2.58;;
35150;SDS011;55720;51.972;4.624;2023-07-13T05:31:52;11.67;;;1.93;;
35150;SDS011;55720;51.972;4.624;2023-07-13T05:34:17;11.60;;;2.47;;
35150;SDS011;55720;51.972;4.624;2023-07-13T05:36:42;10.83;;;2.37;;
35150;SDS011;55720;51.972;4.624;2023-07-13T05:39:07;16.42;;;2.50;;
35150;SDS011;55720;51.972;4.624;2023-07-13T05:41:33;9.25;;;2.80;;
35150;SDS011;55720;51.972;4.624;2023-07-13T05:43:58;12.85;;;2.83;;
35150;SDS011;55720;51.972;4.624;2023-07-13T05:46:24;17.77;;;3.25;;
35150;SDS011;55720;51.972;4.624;2023-07-13T05:48:49;14.20;;;2.70;;
35150;SDS011;55720;51.972;4.624;2023-07-13T05:51:14;16.57;;;3.70;;
35150;SDS011;55720;51.972;4.624;2023-07-13T05:53:39;11.48;;;2.88;;
35150;SDS011;55720;51.972;4.624;2023-07-13T05:56:05;12.98;;;2.70;;
35150;SDS011;55720;51.972;4.624;2023-07-13T05:58:30;15.55;;;3.30;;
35150;SDS011;55720;51.972;4.624;2023-07-13T06:01:03;12.32;;;2.83;;
35150;SDS011;55720;51.972;4.624;2023-07-13T06:03:29;11.27;;;3.08;;
35150;SDS011;55720;51.972;4.624;2023-07-13T06:05:54;11.43;;;3.38;;
35150;SDS011;55720;51.972;4.624;2023-07-13T06:08:19;6.88;;;2.10;;
35150;SDS011;55720;51.972;4.624;2023-07-13T06:10:44;4.40;;;1.50;;
35150;SDS011;55720;51.972;4.624;2023-07-13T06:13:10;8.27;;;1.77;;
35150;SDS011;55720;51.972;4.624;2023-07-13T06:15:35;4.80;;;2.00;;
35150;SDS011;55720;51.972;4.624;2023-07-13T06:18:00;4.00;;;1.70;;
35150;SDS011;55720;51.972;4.624;2023-07-13T06:20:25;10.25;;;2.55;;
35150;SDS011;55720;51.972;4.624;2023-07-13T06:22:50;4.53;;;1.80;;
35150;SDS011;55720;51.972;4.624;2023-07-13T06:25:16;5.40;;;2.03;;
35150;SDS011;55720;51.972;4.624;2023-07-13T06:27:42;8.38;;;1.80;;
35150;SDS011;55720;51.972;4.624;2023-07-13T06:30:07;6.37;;;1.87;;
35150;SDS011;55720;51.972;4.624;2023-07-13T06:32:33;7.00;;;1.70;;
35150;SDS011;55720;51.972;4.624;2023-07-13T06:34:58;5.53;;;1.70;;
35150;SDS011;55720;51.972;4.624;2023-07-13T06:37:23;4.97;;;2.07;;
35150;SDS011;55720;51.972;4.624;2023-07-13T06:39:48;3.63;;;1.93;;
35150;SDS011;55720;51.972;4.624;2023-07-13T06:42:13;8.23;;;2.17;;
35150;SDS011;55720;51.972;4.624;2023-07-13T06:44:39;3.87;;;2.20;;
35150;SDS011;55720;51.972;4.624;2023-07-13T06:47:04;5.57;;;2.10;;
35150;SDS011;55720;51.972;4.624;2023-07-13T06:49:29;8.27;;;2.28;;
35150;SDS011;55720;51.972;4.624;2023-07-13T06:51:55;2.10;;;1.67;;
35150;SDS011;55720;51.972;4.624;2023-07-13T06:54:20;7.67;;;2.20;;
35150;SDS011;55720;51.972;4.624;2023-07-13T06:56:45;4.07;;;2.03;;
35150;SDS011;55720;51.972;4.624;2023-07-13T06:59:10;3.33;;;1.67;;
35150;SDS011;55720;51.972;4.624;2023-07-13T07:01:35;3.47;;;1.63;;
35150;SDS011;55720;51.972;4.624;2023-07-13T07:04:01;4.60;;;1.15;;
35150;SDS011;55720;51.972;4.624;2023-07-13T07:06:26;4.95;;;1.48;;
35150;SDS011;55720;51.972;4.624;2023-07-13T07:08:52;4.33;;;1.60;;
35150;SDS011;55720;51.972;4.624;2023-07-13T07:11:21;3.22;;;1.38;;
35150;SDS011;55720;51.972;4.624;2023-07-13T07:13:49;3.13;;;1.35;;
35150;SDS011;55720;51.972;4.624;2023-07-13T07:16:15;2.17;;;1.10;;
35150;SDS011;55720;51.972;4.624;2023-07-13T07:18:40;4.93;;;1.42;;
35150;SDS011;55720;51.972;4.624;2023-07-13T07:21:05;5.37;;;2.07;;
35150;SDS011;55720;51.972;4.624;2023-07-13T07:23:31;4.17;;;1.60;;
35150;SDS011;55720;51.972;4.624;2023-07-13T07:25:56;4.38;;;1.98;;
35150;SDS011;55720;51.972;4.624;2023-07-13T07:28:21;5.45;;;1.70;;
35150;SDS011;55720;51.972;4.624;2023-07-13T07:30:47;7.80;;;2.25;;
35150;SDS011;55720;51.972;4.624;2023-07-13T07:33:12;4.53;;;1.45;;
35150;SDS011;55720;51.972;4.624;2023-07-13T07:35:37;6.13;;;2.30;;
35150;SDS011;55720;51.972;4.624;2023-07-13T07:38:03;5.22;;;1.50;;
35150;SDS011;55720;51.972;4.624;2023-07-13T07:40:28;5.30;;;1.50;;
35150;SDS011;55720;51.972;4.624;2023-07-13T07:42:53;4.20;;;1.45;;
35150;SDS011;55720;51.972;4.624;2023-07-13T07:45:20;3.20;;;1.43;;
35150;SDS011;55720;51.972;4.624;2023-07-13T07:47:46;4.72;;;1.20;;
35150;SDS011;55720;51.972;4.624;2023-07-13T07:50:11;6.97;;;1.50;;
35150;SDS011;55720;51.972;4.624;2023-07-13T07:52:36;9.37;;;2.70;;
35150;SDS011;55720;51.972;4.624;2023-07-13T07:55:03;4.13;;;1.27;;
35150;SDS011;55720;51.972;4.624;2023-07-13T07:57:28;3.45;;;1.30;;
35150;SDS011;55720;51.972;4.624;2023-07-13T07:59:53;3.00;;;1.40;;
35150;SDS011;55720;51.972;4.624;2023-07-13T08:02:18;1.67;;;0.97;;
35150;SDS011;55720;51.972;4.624;2023-07-13T08:04:44;5.10;;;1.33;;
35150;SDS011;55720;51.972;4.624;2023-07-13T08:07:09;5.97;;;1.50;;
35150;SDS011;55720;51.972;4.624;2023-07-13T08:09:34;3.75;;;2.00;;
35150;SDS011;55720;51.972;4.624;2023-07-13T08:11:59;3.40;;;1.13;;
35150;SDS011;55720;51.972;4.624;2023-07-13T08:14:24;2.63;;;1.50;;
35150;SDS011;55720;51.972;4.624;2023-07-13T08:16:50;2.77;;;1.30;;
35150;SDS011;55720;51.972;4.624;2023-07-13T08:19:15;9.37;;;1.63;;
35150;SDS011;55720;51.972;4.624;2023-07-13T08:21:40;4.87;;;1.70;;
35150;SDS011;55720;51.972;4.624;2023-07-13T08:24:07;4.57;;;1.33;;
35150;SDS011;55720;51.972;4.624;2023-07-13T08:26:32;2.50;;;1.20;;
35150;SDS011;55720;51.972;4.624;2023-07-13T08:28:58;5.13;;;1.33;;
35150;SDS011;55720;51.972;4.624;2023-07-13T08:31:23;2.35;;;0.93;;
35150;SDS011;55720;51.972;4.624;2023-07-13T08:33:48;1.77;;;1.10;;
35150;SDS011;55720;51.972;4.624;2023-07-13T08:36:13;3.73;;;1.40;;
35150;SDS011;55720;51.972;4.624;2023-07-13T08:38:39;4.13;;;1.30;;
35150;SDS011;55720;51.972;4.624;2023-07-13T08:41:12;3.87;;;1.60;;
35150;SDS011;55720;51.972;4.624;2023-07-13T08:43:37;4.78;;;2.15;;
35150;SDS011;55720;51.972;4.624;2023-07-13T08:48:53;4.63;;;1.90;;
35150;SDS011;55720;51.972;4.624;2023-07-13T08:52:01;4.50;;;1.73;;
35150;SDS011;55720;51.972;4.624;2023-07-13T08:56:37;5.68;;;1.98;;
35150;SDS011;55720;51.972;4.624;2023-07-13T08:59:05;4.67;;;2.10;;
35150;SDS011;55720;51.972;4.624;2023-07-13T09:06:45;6.07;;;2.08;;
35150;SDS011;55720;51.972;4.624;2023-07-13T09:09:17;3.60;;;1.55;;
35150;SDS011;55720;51.972;4.624;2023-07-13T09:16:54;4.80;;;1.33;;
35150;SDS011;55720;51.972;4.624;2023-07-13T09:19:21;2.22;;;1.10;;
35150;SDS011;55720;51.972;4.624;2023-07-13T09:21:48;2.35;;;1.00;;
35150;SDS011;55720;51.972;4.624;2023-07-13T09:24:27;2.80;;;1.15;;
35150;SDS011;55720;51.972;4.624;2023-07-13T09:26:53;2.42;;;1.17;;
35150;SDS011;55720;51.972;4.624;2023-07-13T09:29:25;4.60;;;1.38;;
35150;SDS011;55720;51.972;4.624;2023-07-13T09:31:52;3.08;;;1.70;;
35150;SDS011;55720;51.972;4.624;2023-07-13T09:34:18;6.00;;;1.60;;
35150;SDS011;55720;51.972;4.624;2023-07-13T09:36:43;4.23;;;1.50;;
35150;SDS011;55720;51.972;4.624;2023-07-13T09:44:42;6.07;;;1.92;;
35150;SDS011;55720;51.972;4.624;2023-07-13T09:47:22;5.28;;;1.63;;
35150;SDS011;55720;51.972;4.624;2023-07-13T09:49:48;3.95;;;2.00;;
35150;SDS011;55720;51.972;4.624;2023-07-13T09:52:18;3.08;;;2.17;;
35150;SDS011;55720;51.972;4.624;2023-07-13T09:54:44;3.90;;;2.07;;
35150;SDS011;55720;51.972;4.624;2023-07-13T09:57:14;4.55;;;2.00;;
35150;SDS011;55720;51.972;4.624;2023-07-13T09:59:40;3.70;;;1.92;;
35150;SDS011;55720;51.972;4.624;2023-07-13T10:04:55;5.05;;;2.42;;
35150;SDS011;55720;51.972;4.624;2023-07-13T10:07:22;7.97;;;1.65;;
35150;SDS011;55720;51.972;4.624;2023-07-13T10:09:49;6.95;;;1.98;;
35150;SDS011;55720;51.972;4.624;2023-07-13T10:12:17;5.28;;;1.77;;
35150;SDS011;55720;51.972;4.624;2023-07-13T10:14:43;2.67;;;1.98;;
35150;SDS011;55720;51.972;4.624;2023-07-13T10:17:09;5.25;;;1.60;;
35150;SDS011;55720;51.972;4.624;2023-07-13T10:19:35;6.03;;;1.90;;
35150;SDS011;55720;51.972;4.624;2023-07-13T10:24:45;2.50;;;1.85;;
35150;SDS011;55720;51.972;4.624;2023-07-13T10:27:13;4.38;;;1.80;;
35150;SDS011;55720;51.972;4.624;2023-07-13T10:29:42;4.28;;;1.70;;
35150;SDS011;55720;51.972;4.624;2023-07-13T10:32:12;6.32;;;3.00;;
35150;SDS011;55720;51.972;4.624;2023-07-13T10:34:37;6.78;;;1.85;;
35150;SDS011;55720;51.972;4.624;2023-07-13T10:37:04;5.13;;;1.77;;
35150;SDS011;55720;51.972;4.624;2023-07-13T10:39:30;4.57;;;1.60;;
35150;SDS011;55720;51.972;4.624;2023-07-13T10:41:56;5.18;;;1.70;;
35150;SDS011;55720;51.972;4.624;2023-07-13T10:44:24;9.23;;;2.15;;
35150;SDS011;55720;51.972;4.624;2023-07-13T10:46:52;5.40;;;1.88;;
35150;SDS011;55720;51.972;4.624;2023-07-13T10:49:17;3.38;;;2.03;;
35150;SDS011;55720;51.972;4.624;2023-07-13T10:51:43;4.82;;;1.83;;
35150;SDS011;55720;51.972;4.624;2023-07-13T10:56:41;1.58;;;1.38;;
35150;SDS011;55720;51.972;4.624;2023-07-13T10:59:11;4.47;;;1.65;;
35150;SDS011;55720;51.972;4.624;2023-07-13T11:04:02;2.13;;;1.50;;
35150;SDS011;55720;51.972;4.624;2023-07-13T11:08:57;4.75;;;1.60;;
35150;SDS011;55720;51.972;4.624;2023-07-13T11:13:55;5.03;;;1.70;;
35150;SDS011;55720;51.972;4.624;2023-07-13T11:18:51;3.90;;;1.50;;
35150;SDS011;55720;51.972;4.624;2023-07-13T11:21:21;3.38;;;1.45;;
35150;SDS011;55720;51.972;4.624;2023-07-13T11:24:04;3.63;;;1.63;;
35150;SDS011;55720;51.972;4.624;2023-07-13T11:31:54;2.22;;;1.30;;
35150;SDS011;55720;51.972;4.624;2023-07-13T11:34:21;2.53;;;1.25;;
35150;SDS011;55720;51.972;4.624;2023-07-13T11:36:48;3.07;;;1.30;;
35150;SDS011;55720;51.972;4.624;2023-07-13T11:39:16;2.90;;;1.60;;
35150;SDS011;55720;51.972;4.624;2023-07-13T11:41:49;1.30;;;1.15;;
35150;SDS011;55720;51.972;4.624;2023-07-13T11:44:18;2.47;;;1.33;;
35150;SDS011;55720;51.972;4.624;2023-07-13T11:46:47;3.70;;;1.40;;
35150;SDS011;55720;51.972;4.624;2023-07-13T11:49:15;1.60;;;1.40;;
35150;SDS011;55720;51.972;4.624;2023-07-13T11:51:40;1.20;;;1.10;;
35150;SDS011;55720;51.972;4.624;2023-07-13T11:54:13;3.90;;;1.27;;
35150;SDS011;55720;51.972;4.624;2023-07-13T11:56:40;1.77;;;1.40;;
35150;SDS011;55720;51.972;4.624;2023-07-13T11:59:07;4.60;;;1.77;;
35150;SDS011;55720;51.972;4.624;2023-07-13T12:01:33;3.03;;;1.02;;
35150;SDS011;55720;51.972;4.624;2023-07-13T12:04:02;1.63;;;1.20;;
35150;SDS011;55720;51.972;4.624;2023-07-13T12:06:29;4.95;;;1.60;;
35150;SDS011;55720;51.972;4.624;2023-07-13T12:08:58;3.42;;;1.30;;
35150;SDS011;55720;51.972;4.624;2023-07-13T12:11:24;3.30;;;1.40;;
35150;SDS011;55720;51.972;4.624;2023-07-13T12:13:49;5.20;;;1.30;;
35150;SDS011;55720;51.972;4.624;2023-07-13T12:16:16;2.53;;;1.20;;
35150;SDS011;55720;51.972;4.624;2023-07-13T12:18:43;4.53;;;1.30;;
35150;SDS011;55720;51.972;4.624;2023-07-13T12:21:13;4.82;;;1.42;;
35150;SDS011;55720;51.972;4.624;2023-07-13T12:23:39;3.08;;;1.20;;
35150;SDS011;55720;51.972;4.624;2023-07-13T12:26:07;2.65;;;1.25;;
35150;SDS011;55720;51.972;4.624;2023-07-13T12:31:02;3.00;;;1.48;;
35150;SDS011;55720;51.972;4.624;2023-07-13T12:33:28;3.38;;;1.40;;
35150;SDS011;55720;51.972;4.624;2023-07-13T12:35:54;2.83;;;1.63;;
35150;SDS011;55720;51.972;4.624;2023-07-13T12:38:20;3.72;;;1.60;;
35150;SDS011;55720;51.972;4.624;2023-07-13T12:40:49;2.40;;;1.58;;
35150;SDS011;55720;51.972;4.624;2023-07-13T12:43:15;1.98;;;1.33;;
35150;SDS011;55720;51.972;4.624;2023-07-13T12:45:59;4.10;;;1.45;;
35150;SDS011;55720;51.972;4.624;2023-07-13T12:48:26;4.05;;;1.60;;
35150;SDS011;55720;51.972;4.624;2023-07-13T12:50:51;4.85;;;1.77;;
35150;SDS011;55720;51.972;4.624;2023-07-13T12:53:23;2.47;;;1.20;;
35150;SDS011;55720;51.972;4.624;2023-07-13T12:58:16;2.13;;;1.10;;
35150;SDS011;55720;51.972;4.624;2023-07-13T13:00:47;1.35;;;1.00;;
35150;SDS011;55720;51.972;4.624;2023-07-13T13:05:43;4.32;;;2.17;;
35150;SDS011;55720;51.972;4.624;2023-07-13T13:08:13;2.05;;;1.20;;
35150;SDS011;55720;51.972;4.624;2023-07-13T13:10:38;1.77;;;1.08;;
35150;SDS011;55720;51.972;4.624;2023-07-13T13:13:04;1.85;;;1.20;;
35150;SDS011;55720;51.972;4.624;2023-07-13T13:15:29;2.87;;;1.23;;
35150;SDS011;55720;51.972;4.624;2023-07-13T13:17:55;1.75;;;1.20;;
35150;SDS011;55720;51.972;4.624;2023-07-13T13:20:20;1.80;;;1.02;;
35150;SDS011;55720;51.972;4.624;2023-07-13T13:22:46;3.40;;;0.93;;
35150;SDS011;55720;51.972;4.624;2023-07-13T13:25:12;2.10;;;1.10;;
35150;SDS011;55720;51.972;4.624;2023-07-13T13:27:39;1.00;;;0.85;;
35150;SDS011;55720;51.972;4.624;2023-07-13T13:30:09;1.50;;;0.95;;
35150;SDS011;55720;51.972;4.624;2023-07-13T13:32:35;3.13;;;1.13;;
35150;SDS011;55720;51.972;4.624;2023-07-13T13:35:00;2.13;;;0.83;;
35150;SDS011;55720;51.972;4.624;2023-07-13T13:37:26;1.35;;;1.00;;
35150;SDS011;55720;51.972;4.624;2023-07-13T13:39:51;3.17;;;1.10;;
35150;SDS011;55720;51.972;4.624;2023-07-13T13:42:18;1.20;;;0.90;;
35150;SDS011;55720;51.972;4.624;2023-07-13T13:44:46;1.88;;;0.95;;
35150;SDS011;55720;51.972;4.624;2023-07-13T13:47:20;2.88;;;0.95;;
35150;SDS011;55720;51.972;4.624;2023-07-13T13:49:46;2.78;;;1.15;;
35150;SDS011;55720;51.972;4.624;2023-07-13T13:52:12;2.22;;;0.90;;
35150;SDS011;55720;51.972;4.624;2023-07-13T13:54:38;4.88;;;1.00;;
35150;SDS011;55720;51.972;4.624;2023-07-13T13:57:03;1.33;;;1.02;;
35150;SDS011;55720;51.972;4.624;2023-07-13T13:59:29;2.28;;;1.27;;
35150;SDS011;55720;51.972;4.624;2023-07-13T14:01:57;3.45;;;0.70;;
35150;SDS011;55720;51.972;4.624;2023-07-13T14:04:25;2.05;;;0.80;;
35150;SDS011;55720;51.972;4.624;2023-07-13T14:06:50;1.83;;;0.70;;
35150;SDS011;55720;51.972;4.624;2023-07-13T14:09:16;1.77;;;1.00;;
35150;SDS011;55720;51.972;4.624;2023-07-13T14:11:43;2.83;;;0.80;;
35150;SDS011;55720;51.972;4.624;2023-07-13T14:14:13;1.58;;;1.00;;
35150;SDS011;55720;51.972;4.624;2023-07-13T14:16:39;2.63;;;1.00;;
35150;SDS011;55720;51.972;4.624;2023-07-13T14:19:07;2.95;;;1.27;;
35150;SDS011;55720;51.972;4.624;2023-07-13T14:21:33;4.43;;;1.55;;
35150;SDS011;55720;51.972;4.624;2023-07-13T14:23:58;2.30;;;0.90;;
35150;SDS011;55720;51.972;4.624;2023-07-13T14:26:24;1.77;;;0.70;;
35150;SDS011;55720;51.972;4.624;2023-07-13T14:28:51;1.48;;;1.08;;
35150;SDS011;55720;51.972;4.624;2023-07-13T14:31:17;3.17;;;0.90;;
35150;SDS011;55720;51.972;4.624;2023-07-13T14:33:43;2.72;;;1.55;;
35150;SDS011;55720;51.972;4.624;2023-07-13T14:38:52;1.98;;;0.82;;
35150;SDS011;55720;51.972;4.624;2023-07-13T14:41:18;2.05;;;1.10;;
35150;SDS011;55720;51.972;4.624;2023-07-13T14:43:44;1.65;;;0.77;;
35150;SDS011;55720;51.972;4.624;2023-07-13T14:46:24;2.55;;;0.80;;
35150;SDS011;55720;51.972;4.624;2023-07-13T14:48:52;2.13;;;1.63;;
35150;SDS011;55720;51.972;4.624;2023-07-13T14:51:17;1.80;;;0.90;;
35150;SDS011;55720;51.972;4.624;2023-07-13T14:53:43;1.67;;;0.77;;
35150;SDS011;55720;51.972;4.624;2023-07-13T14:56:11;2.63;;;1.47;;
35150;SDS011;55720;51.972;4.624;2023-07-13T14:58:37;3.45;;;1.00;;
35150;SDS011;55720;51.972;4.624;2023-07-13T15:01:07;2.53;;;0.90;;
35150;SDS011;55720;51.972;4.624;2023-07-13T15:03:32;5.30;;;1.00;;
35150;SDS011;55720;51.972;4.624;2023-07-13T15:05:58;1.50;;;0.85;;
35150;SDS011;55720;51.972;4.624;2023-07-13T15:08:23;2.07;;;0.90;;
35150;SDS011;55720;51.972;4.624;2023-07-13T15:10:48;2.78;;;1.10;;
35150;SDS011;55720;51.972;4.624;2023-07-13T15:13:15;3.60;;;1.48;;
35150;SDS011;55720;51.972;4.624;2023-07-13T15:15:41;2.40;;;0.90;;
35150;SDS011;55720;51.972;4.624;2023-07-13T15:18:09;1.33;;;0.90;;
35150;SDS011;55720;51.972;4.624;2023-07-13T15:20:36;2.80;;;1.15;;
35150;SDS011;55720;51.972;4.624;2023-07-13T15:23:01;1.92;;;1.10;;
35150;SDS011;55720;51.972;4.624;2023-07-13T15:25:28;5.35;;;1.08;;
35150;SDS011;55720;51.972;4.624;2023-07-13T15:27:54;2.63;;;1.08;;
35150;SDS011;55720;51.972;4.624;2023-07-13T15:30:20;1.17;;;0.73;;
35150;SDS011;55720;51.972;4.624;2023-07-13T15:32:45;4.65;;;0.80;;
35150;SDS011;55720;51.972;4.624;2023-07-13T15:35:15;1.05;;;0.70;;
35150;SDS011;55720;51.972;4.624;2023-07-13T15:37:41;3.28;;;0.80;;